Time;durP1;ratioP1;P1;durP2;ratioP2;P2;SDS_P1;SDS_P2;PMS_P1;PMS_P2;Temp;Humidity;BMP_temperature;BMP_pressure;BME280_temperature;BME280_humidity;BME280_pressure;Samples;Min_cycle;Max_cycle;Signal;HPM_P1;HPM_P2
2023/08/01 00:00:53;;;;;;;7.05;2.10;;;14.00;99.90;;;;;;4845912;29;20050;-56
2023/08/01 00:03:20;;;;;;;7.68;2.45;;;14.00;99.90;;;;;;4856634;29;20538;-56
2023/08/01 00:05:49;;;;;;;9.65;2.58;;;14.00;99.90;;;;;;4855824;29;20053;-56
2023/08/01 00:08:16;;;;;;;9.82;2.03;;;14.00;99.90;;;;;;4852224;29;20057;-57
2023/08/01 00:10:44;;;;;;;8.77;2.90;;;14.00;99.90;;;;;;4831405;29;20066;-56
2023/08/01 00:13:12;;;;;;;6.68;2.50;;;14.00;99.90;;;;;;4857088;29;20064;-56
2023/08/01 00:15:40;;;;;;;6.00;1.90;;;;;;;;;;4856828;29;20060;-56
2023/08/01 00:18:14;;;;;;;10.75;2.25;;;14.00;99.90;;;;;;4845988;29;20044;-56
2023/08/01 00:20:41;;;;;;;8.45;2.20;;;14.00;99.90;;;;;;4835944;29;20049;-57
2023/08/01 00:23:09;;;;;;;8.57;2.35;;;14.00;99.90;;;;;;4857402;29;20429;-57
2023/08/01 00:25:39;;;;;;;5.78;2.70;;;14.00;99.90;;;;;;4851191;29;20065;-56
2023/08/01 00:28:07;;;;;;;10.60;1.95;;;14.00;99.90;;;;;;4857277;29;20042;-56
2023/08/01 00:30:34;;;;;;;9.77;2.08;;;13.90;99.90;;;;;;4847200;29;20539;-57
2023/08/01 00:33:02;;;;;;;12.40;2.78;;;13.90;99.90;;;;;;4856539;29;20054;-56
2023/08/01 00:35:30;;;;;;;3.28;1.75;;;13.90;99.90;;;;;;4856513;29;20061;-57
2023/08/01 00:37:58;;;;;;;5.03;1.60;;;;;;;;;;4836970;29;20053;-57
2023/08/01 00:40:33;;;;;;;10.63;2.45;;;13.90;99.90;;;;;;4853114;29;20052;-56
2023/08/01 00:43:01;;;;;;;8.40;1.92;;;13.90;99.90;;;;;;4856451;29;20075;-57
2023/08/01 00:45:30;;;;;;;7.60;1.73;;;13.90;99.90;;;;;;4856546;29;20056;-57
2023/08/01 00:47:58;;;;;;;10.90;1.88;;;13.90;99.90;;;;;;4840299;29;20057;-57
2023/08/01 00:50:26;;;;;;;5.63;1.73;;;13.90;99.90;;;;;;4848512;29;20053;-56
2023/08/01 00:52:54;;;;;;;8.25;2.70;;;13.90;99.90;;;;;;4856806;29;20061;-57
2023/08/01 00:55:23;;;;;;;7.68;1.85;;;13.90;99.90;;;;;;4851653;29;20061;-60
2023/08/01 00:57:52;;;;;;;7.82;1.63;;;13.90;99.90;;;;;;4840420;29;20049;-57
2023/08/01 01:00:20;;;;;;;4.67;1.57;;;13.90;99.90;;;;;;4832623;29;20052;-57
2023/08/01 01:02:49;;;;;;;9.35;1.30;;;;;;;;;;4853330;29;20077;-58
2023/08/01 01:05:17;;;;;;;6.38;1.70;;;13.90;99.90;;;;;;4831866;29;20045;-56
2023/08/01 01:07:45;;;;;;;6.18;1.63;;;13.90;99.90;;;;;;4851236;29;20078;-58
2023/08/01 01:10:13;;;;;;;9.50;1.92;;;13.90;99.90;;;;;;4841970;29;20053;-57
2023/08/01 01:12:40;;;;;;;9.57;2.08;;;13.90;99.90;;;;;;4835317;29;20062;-58
2023/08/01 01:15:08;;;;;;;9.85;2.25;;;13.90;99.90;;;;;;4818894;29;20045;-58
2023/08/01 01:17:36;;;;;;;10.63;2.13;;;13.90;99.90;;;;;;4856275;29;20069;-58
2023/08/01 01:20:04;;;;;;;12.02;2.67;;;13.90;99.90;;;;;;4837268;29;20046;-57
2023/08/01 01:22:33;;;;;;;7.40;1.70;;;13.80;99.90;;;;;;4839722;29;20469;-57
2023/08/01 01:25:02;;;;;;;8.60;2.20;;;13.80;99.90;;;;;;4831143;29;20050;-57
2023/08/01 01:27:31;;;;;;;8.80;1.87;;;13.70;99.90;;;;;;4849020;29;20065;-57
2023/08/01 01:30:00;;;;;;;7.07;2.30;;;13.70;99.90;;;;;;4834554;29;20322;-57
2023/08/01 01:32:28;;;;;;;18.75;2.35;;;13.60;99.90;;;;;;4851890;29;20041;-58
2023/08/01 01:34:56;;;;;;;9.57;2.33;;;13.60;99.90;;;;;;4856064;29;20501;-58
2023/08/01 01:37:24;;;;;;;19.95;2.88;;;13.50;99.90;;;;;;4839888;29;20482;-58
2023/08/01 01:39:52;;;;;;;13.48;2.25;;;13.50;99.90;;;;;;4852768;29;20062;-57
2023/08/01 01:42:20;;;;;;;15.05;2.38;;;13.40;99.90;;;;;;4836052;29;20489;-57
2023/08/01 01:44:48;;;;;;;5.15;1.95;;;13.50;99.90;;;;;;4859310;29;20053;-56
2023/08/01 01:47:16;;;;;;;7.88;1.98;;;13.40;99.90;;;;;;4853230;29;20049;-57
2023/08/01 01:49:44;;;;;;;6.22;2.20;;;13.40;99.90;;;;;;4851404;29;20418;-57
2023/08/01 01:52:12;;;;;;;6.97;2.10;;;13.40;99.90;;;;;;4853083;29;20540;-57
2023/08/01 01:54:39;;;;;;;12.98;2.22;;;13.40;99.90;;;;;;4842656;29;20497;-57
2023/08/01 01:57:07;;;;;;;7.03;1.65;;;13.50;99.90;;;;;;4842132;29;20062;-57
2023/08/01 01:59:35;;;;;;;7.40;2.10;;;13.50;99.90;;;;;;4834785;29;20041;-58
2023/08/01 02:02:03;;;;;;;8.85;2.58;;;13.50;99.90;;;;;;4831254;29;20050;-58
2023/08/01 02:04:31;;;;;;;9.40;2.20;;;13.50;99.90;;;;;;4853744;29;20052;-58
2023/08/01 02:06:59;;;;;;;8.77;2.13;;;13.50;99.90;;;;;;4839269;29;20049;-58
2023/08/01 02:09:26;;;;;;;12.65;2.53;;;13.40;99.90;;;;;;4842631;29;20057;-58
2023/08/01 02:11:54;;;;;;;10.98;1.88;;;13.50;99.90;;;;;;4831664;29;20049;-58
2023/08/01 02:14:22;;;;;;;14.23;2.40;;;13.40;99.90;;;;;;4858777;29;20045;-57
2023/08/01 02:16:50;;;;;;;6.53;1.58;;;13.40;99.90;;;;;;4827667;29;20520;-58
2023/08/01 02:19:19;;;;;;;10.52;2.00;;;13.40;99.90;;;;;;4850768;29;20049;-57
2023/08/01 02:21:47;;;;;;;9.38;1.92;;;13.40;99.90;;;;;;4842595;29;20046;-58
2023/08/01 02:24:14;;;;;;;8.27;1.92;;;13.50;99.90;;;;;;4858790;29;20042;-57
2023/08/01 02:26:42;;;;;;;5.07;1.70;;;13.40;99.90;;;;;;4846127;29;20054;-57
2023/08/01 02:29:10;;;;;;;9.68;2.17;;;13.50;99.90;;;;;;4856741;29;20057;-57
2023/08/01 02:31:37;;;;;;;11.30;2.30;;;13.50;99.90;;;;;;4862416;29;20734;-56
2023/08/01 02:34:05;;;;;;;8.07;1.80;;;13.50;99.90;;;;;;4845745;29;20044;-57
2023/08/01 02:36:32;;;;;;;11.57;1.83;;;13.50;99.90;;;;;;4859167;29;20430;-57
2023/08/01 02:39:00;;;;;;;14.70;2.00;;;13.50;99.90;;;;;;4850989;29;20505;-57
2023/08/01 02:41:28;;;;;;;5.07;1.83;;;13.50;99.90;;;;;;4860134;29;20057;-57
2023/08/01 02:43:55;;;;;;;8.13;1.88;;;13.50;99.90;;;;;;4862418;29;20498;-57
2023/08/01 02:46:23;;;;;;;8.20;2.13;;;13.50;99.90;;;;;;4861913;29;20060;-57
2023/08/01 02:48:52;;;;;;;8.35;1.80;;;13.50;99.90;;;;;;4839175;29;20063;-57
2023/08/01 02:51:19;;;;;;;9.43;1.58;;;13.50;99.90;;;;;;4854632;29;20521;-57
2023/08/01 02:53:47;;;;;;;11.63;2.22;;;13.50;99.90;;;;;;4845317;29;20050;-57
2023/08/01 02:56:15;;;;;;;4.90;1.50;;;13.50;99.90;;;;;;4845439;29;20042;-57
2023/08/01 02:58:43;;;;;;;4.88;1.33;;;13.50;99.90;;;;;;4856916;29;20060;-57
2023/08/01 03:01:10;;;;;;;15.10;2.80;;;13.50;99.90;;;;;;4842106;29;20530;-57
2023/08/01 03:03:38;;;;;;;8.65;2.00;;;13.50;99.90;;;;;;4830198;29;20045;-58
2023/08/01 03:06:07;;;;;;;11.95;1.88;;;13.50;99.90;;;;;;4861298;29;20849;-58
2023/08/01 03:08:35;;;;;;;14.00;1.90;;;13.50;99.90;;;;;;4851881;29;20391;-56
2023/08/01 03:11:02;;;;;;;8.10;1.92;;;13.50;99.90;;;;;;4839063;29;20418;-57
2023/08/01 03:13:30;;;;;;;6.65;1.42;;;13.50;99.90;;;;;;4860077;29;20046;-56
2023/08/01 03:15:58;;;;;;;7.65;1.50;;;13.50;99.90;;;;;;4845282;29;20045;-56
2023/08/01 03:18:25;;;;;;;6.43;1.73;;;13.50;99.90;;;;;;4859710;29;20053;-56
2023/08/01 03:20:53;;;;;;;4.53;1.75;;;13.50;99.90;;;;;;4860889;29;20136;-56
2023/08/01 03:23:21;;;;;;;5.78;1.50;;;13.50;99.90;;;;;;4861818;29;20049;-56
2023/08/01 03:25:49;;;;;;;10.52;1.95;;;13.60;99.90;;;;;;4861513;29;20049;-57
2023/08/01 03:28:17;;;;;;;8.35;2.05;;;13.60;99.90;;;;;;4853558;29;20062;-56
2023/08/01 03:30:45;;;;;;;8.50;2.00;;;13.60;99.90;;;;;;4861879;29;20045;-57
2023/08/01 03:33:12;;;;;;;6.03;1.60;;;13.60;99.90;;;;;;4861427;29;20056;-57
2023/08/01 03:35:40;;;;;;;6.75;1.88;;;13.50;99.90;;;;;;4839373;29;20054;-57
2023/08/01 03:38:08;;;;;;;14.07;2.03;;;13.60;99.90;;;;;;4837991;29;20501;-56
2023/08/01 03:40:36;;;;;;;7.22;1.52;;;13.60;99.90;;;;;;4844655;29;20405;-57
2023/08/01 03:43:05;;;;;;;6.68;1.90;;;13.60;99.90;;;;;;4859805;29;20053;-56
2023/08/01 03:45:33;;;;;;;14.88;2.75;;;13.60;99.90;;;;;;4844459;29;20505;-57
2023/08/01 03:48:01;;;;;;;15.88;2.17;;;13.60;99.90;;;;;;4844910;29;20054;-57
2023/08/01 03:50:29;;;;;;;7.88;1.67;;;13.50;99.90;;;;;;4859363;29;20061;-57
2023/08/01 03:52:56;;;;;;;7.75;1.40;;;13.60;99.90;;;;;;4844713;29;20395;-57
2023/08/01 03:55:24;;;;;;;12.27;1.90;;;13.60;99.90;;;;;;4861068;29;20049;-57
2023/08/01 03:57:51;;;;;;;7.07;1.90;;;13.60;99.90;;;;;;4844486;29;20049;-57
2023/08/01 04:00:19;;;;;;;8.55;1.90;;;13.50;99.90;;;;;;4860854;29;20060;-57
2023/08/01 04:02:47;;;;;;;3.95;1.40;;;13.50;99.90;;;;;;4853100;29;20045;-56
2023/08/01 04:05:18;;;;;;;5.60;1.30;;;13.50;99.90;;;;;;4843795;29;20053;-56
2023/08/01 04:07:46;;;;;;;11.35;1.70;;;13.50;99.90;;;;;;4857032;29;20056;-56
2023/08/01 04:10:14;;;;;;;11.82;2.03;;;13.50;99.90;;;;;;4861195;29;20045;-57
2023/08/01 04:12:42;;;;;;;10.57;2.10;;;13.50;99.90;;;;;;4859224;29;20053;-57
2023/08/01 04:15:10;;;;;;;7.22;1.73;;;13.50;99.90;;;;;;4833311;29;20049;-57
2023/08/01 04:17:38;;;;;;;5.55;1.45;;;13.40;99.90;;;;;;4859807;29;20053;-56
2023/08/01 04:20:06;;;;;;;10.80;1.67;;;13.40;99.90;;;;;;4859857;29;20057;-58
2023/08/01 04:22:34;;;;;;;6.63;1.48;;;13.40;99.90;;;;;;4860779;29;20057;-56
2023/08/01 04:25:02;;;;;;;5.47;1.50;;;13.40;99.90;;;;;;4853366;29;20052;-56
2023/08/01 04:27:31;;;;;;;4.40;1.40;;;13.40;99.90;;;;;;4835220;29;20402;-57
2023/08/01 04:29:58;;;;;;;11.00;1.50;;;13.40;99.90;;;;;;4860726;29;20045;-56
2023/08/01 04:32:26;;;;;;;5.07;1.40;;;13.40;99.90;;;;;;4843897;29;20048;-56
2023/08/01 04:34:54;;;;;;;2.85;1.65;;;13.40;99.90;;;;;;4860286;29;20048;-56
2023/08/01 04:37:23;;;;;;;7.32;1.40;;;13.40;99.90;;;;;;4860311;29;20060;-57
2023/08/01 04:39:50;;;;;;;5.43;1.40;;;13.40;99.90;;;;;;4856038;29;20509;-56
2023/08/01 04:42:21;;;;;;;8.50;1.70;;;13.50;99.90;;;;;;4842525;29;20053;-56
2023/08/01 04:44:49;;;;;;;7.65;1.70;;;13.50;99.90;;;;;;4843577;29;20057;-56
2023/08/01 04:47:16;;;;;;;5.95;1.77;;;13.40;99.90;;;;;;4852168;29;20053;-57
2023/08/01 04:49:44;;;;;;;7.82;1.58;;;13.50;99.90;;;;;;4847481;29;20402;-56
2023/08/01 04:52:12;;;;;;;7.80;1.70;;;13.40;99.90;;;;;;4841497;29;20057;-57
2023/08/01 04:54:40;;;;;;;6.03;1.20;;;13.40;99.90;;;;;;4850295;29;20053;-56
2023/08/01 04:57:07;;;;;;;12.60;2.08;;;13.40;99.90;;;;;;4848919;29;20041;-56
2023/08/01 04:59:35;;;;;;;9.55;1.80;;;13.40;99.90;;;;;;4856574;29;20033;-57
2023/08/01 05:02:03;;;;;;;7.78;1.52;;;13.30;99.90;;;;;;4836990;29;20076;-57
2023/08/01 05:04:31;;;;;;;10.63;1.92;;;13.40;99.90;;;;;;4847974;29;20057;-57
2023/08/01 05:06:58;;;;;;;8.13;1.60;;;13.30;99.90;;;;;;4816303;29;20046;-57
2023/08/01 05:09:26;;;;;;;7.80;1.40;;;13.30;99.90;;;;;;4847312;29;20049;-57
2023/08/01 05:11:54;;;;;;;6.80;1.33;;;;;;;;;;4828479;29;20553;-56
2023/08/01 05:14:22;;;;;;;8.88;1.83;;;13.30;99.90;;;;;;4852548;29;20045;-57
2023/08/01 05:16:50;;;;;;;7.30;1.42;;;13.30;99.90;;;;;;4840093;29;20046;-57
2023/08/01 05:19:17;;;;;;;9.00;1.75;;;13.30;99.90;;;;;;4855876;29;20048;-57
2023/08/01 05:21:46;;;;;;;8.93;1.98;;;13.30;99.90;;;;;;4833066;29;20061;-59
2023/08/01 05:24:14;;;;;;;5.65;1.65;;;13.20;99.90;;;;;;4851126;29;20042;-58
2023/08/01 05:26:41;;;;;;;9.02;2.05;;;13.20;99.90;;;;;;4853951;29;20335;-57
2023/08/01 05:29:09;;;;;;;7.13;1.60;;;13.20;99.90;;;;;;4853450;29;20061;-57
2023/08/01 05:31:37;;;;;;;8.32;1.60;;;13.00;99.90;;;;;;4849297;29;20054;-58
2023/08/01 05:34:08;;;;;;;5.70;1.60;;;13.20;99.90;;;;;;4816541;29;20053;-57
2023/08/01 05:36:36;;;;;;;5.28;1.35;;;13.20;99.90;;;;;;4845153;29;20049;-57
2023/08/01 05:39:05;;;;;;;6.88;1.52;;;13.20;99.90;;;;;;4843419;29;20037;-57
2023/08/01 05:41:32;;;;;;;10.90;1.83;;;13.20;99.90;;;;;;4853729;29;20049;-58
2023/08/01 05:44:00;;;;;;;7.20;1.70;;;13.10;99.90;;;;;;4855852;29;20037;-58
2023/08/01 05:46:29;;;;;;;5.88;1.75;;;;;;;;;;4849670;29;20049;-58
2023/08/01 05:48:57;;;;;;;10.57;1.67;;;13.10;99.90;;;;;;4843460;29;20550;-57
2023/08/01 05:51:24;;;;;;;11.95;1.52;;;13.20;99.90;;;;;;4843331;29;20127;-57
2023/08/01 05:53:52;;;;;;;7.15;2.28;;;13.10;99.90;;;;;;4850350;29;20421;-57
2023/08/01 05:56:20;;;;;;;9.10;1.48;;;13.20;99.90;;;;;;4835049;29;20513;-57
2023/08/01 05:58:50;;;;;;;6.45;1.55;;;13.20;99.90;;;;;;4837399;29;20044;-57
2023/08/01 06:01:17;;;;;;;4.15;1.30;;;13.20;99.90;;;;;;4855731;29;20058;-57
2023/08/01 06:03:45;;;;;;;8.10;1.40;;;13.50;99.90;;;;;;4852772;29;20045;-57
2023/08/01 06:06:13;;;;;;;5.75;1.17;;;13.30;99.90;;;;;;4838532;29;20061;-57
2023/08/01 06:08:41;;;;;;;4.65;1.33;;;13.30;99.90;;;;;;4818451;29;20064;-57
2023/08/01 06:11:11;;;;;;;5.82;1.25;;;13.30;99.90;;;;;;4838571;29;20050;-57
2023/08/01 06:13:38;;;;;;;7.07;1.40;;;13.40;99.90;;;;;;4845982;29;20060;-57
2023/08/01 06:16:06;;;;;;;10.60;1.50;;;13.50;99.90;;;;;;4838698;29;20060;-57
2023/08/01 06:18:34;;;;;;;6.40;1.83;;;13.50;99.90;;;;;;4854334;29;20371;-58
2023/08/01 06:21:02;;;;;;;6.05;2.03;;;13.60;99.90;;;;;;4808509;29;20050;-58
2023/08/01 06:23:30;;;;;;;6.40;1.30;;;13.70;99.90;;;;;;4852648;29;20045;-57
2023/08/01 06:25:58;;;;;;;6.53;1.25;;;13.70;99.90;;;;;;4854157;29;20084;-58
2023/08/01 06:28:25;;;;;;;3.85;1.25;;;13.90;99.90;;;;;;4852180;29;20425;-57
2023/08/01 06:30:53;;;;;;;6.68;1.67;;;13.80;99.90;;;;;;4833597;29;20061;-57
2023/08/01 06:33:21;;;;;;;9.68;1.60;;;13.90;99.90;;;;;;4852245;29;20042;-57
2023/08/01 06:35:58;;;;;;;9.65;1.60;;;14.00;99.90;;;;;;4820142;29;20064;-58
2023/08/01 06:38:26;;;;;;;6.05;1.30;;;14.10;99.90;;;;;;4828003;29;20567;-57
2023/08/01 06:40:53;;;;;;;9.02;1.60;;;14.10;99.90;;;;;;4841698;29;20053;-58
2023/08/01 06:43:21;;;;;;;7.20;1.10;;;14.20;99.90;;;;;;4829704;29;20057;-57
2023/08/01 06:45:50;;;;;;;3.13;1.30;;;14.30;99.90;;;;;;4816815;29;20355;-57
2023/08/01 06:48:18;;;;;;;4.15;0.90;;;14.40;99.90;;;;;;4827524;29;20061;-57
2023/08/01 06:50:46;;;;;;;4.63;1.55;;;14.40;99.90;;;;;;4834021;29;20046;-58
2023/08/01 06:53:14;;;;;;;4.90;1.23;;;14.50;99.90;;;;;;4848901;29;20065;-57
2023/08/01 06:55:41;;;;;;;8.32;1.40;;;14.50;99.90;;;;;;4849203;29;20061;-58
2023/08/01 06:58:09;;;;;;;6.07;1.35;;;14.60;99.90;;;;;;4854343;29;20509;-57
2023/08/01 07:00:37;;;;;;;4.53;1.20;;;14.60;99.90;;;;;;4838814;29;20056;-58
2023/08/01 07:03:04;;;;;;;7.05;1.20;;;14.70;99.90;;;;;;4851328;29;20045;-58
2023/08/01 07:05:32;;;;;;;5.60;1.58;;;14.70;99.90;;;;;;4832096;29;20048;-58
2023/08/01 07:08:00;;;;;;;5.72;1.17;;;14.80;99.90;;;;;;4844862;29;20522;-58
2023/08/01 07:10:28;;;;;;;9.38;1.30;;;14.80;99.90;;;;;;4835545;29;20061;-58
2023/08/01 07:12:56;;;;;;;8.18;1.60;;;14.80;99.90;;;;;;4855730;29;20049;-58
2023/08/01 07:15:24;;;;;;;6.45;1.23;;;;;;;;;;4856094;29;20049;-58
2023/08/01 07:18:01;;;;;;;8.25;1.13;;;14.80;99.90;;;;;;4834360;29;20041;-57
2023/08/01 07:20:30;;;;;;;3.28;1.10;;;14.70;99.90;;;;;;4838562;29;20046;-58
2023/08/01 07:22:58;;;;;;;4.15;1.20;;;14.80;99.90;;;;;;4848398;29;20062;-58
2023/08/01 07:25:26;;;;;;;5.05;1.23;;;14.70;99.90;;;;;;4851423;29;20041;-58
2023/08/01 07:27:53;;;;;;;9.32;1.50;;;14.80;99.90;;;;;;4847227;29;20050;-58
2023/08/01 07:30:21;;;;;;;2.88;0.85;;;14.70;99.90;;;;;;4846984;29;20577;-58
2023/08/01 07:32:49;;;;;;;7.22;1.08;;;14.80;99.90;;;;;;4854921;29;20050;-58
2023/08/01 07:35:21;;;;;;;6.07;1.10;;;14.80;99.90;;;;;;4821207;29;20053;-58
2023/08/01 07:37:49;;;;;;;5.47;1.75;;;14.90;99.90;;;;;;4844257;29;20477;-57
2023/08/01 07:40:17;;;;;;;8.13;1.35;;;14.90;99.90;;;;;;4845830;29;20061;-58
2023/08/01 07:42:46;;;;;;;5.25;1.40;;;15.00;99.90;;;;;;4838614;29;20041;-58
2023/08/01 07:45:13;;;;;;;5.80;1.00;;;15.00;99.90;;;;;;4855514;29;20049;-58
2023/08/01 07:47:41;;;;;;;6.22;1.10;;;15.00;99.90;;;;;;4853588;29;20049;-57
2023/08/01 07:50:09;;;;;;;7.28;1.45;;;15.10;99.90;;;;;;4839372;29;20599;-58
2023/08/01 07:52:37;;;;;;;8.77;1.45;;;15.10;99.90;;;;;;4823988;29;20056;-58
2023/08/01 07:55:05;;;;;;;6.68;1.42;;;15.20;99.90;;;;;;4838407;29;20066;-57
2023/08/01 07:57:33;;;;;;;5.30;1.15;;;15.20;99.90;;;;;;4849781;29;20060;-58
2023/08/01 08:00:01;;;;;;;6.80;1.27;;;15.30;99.90;;;;;;4840032;29;20053;-57
2023/08/01 08:02:42;;;;;;;7.20;1.10;;;15.40;99.90;;;;;;4828055;29;20050;-58
2023/08/01 08:05:10;;;;;;;;;;;15.40;99.90;;;;;;4854054;29;20037;-58
2023/08/01 08:07:37;;;;;;;5.70;0.82;;;15.50;99.90;;;;;;4851700;29;19936;-59
2023/08/01 08:10:06;;;;;;;3.35;1.00;;;15.60;99.90;;;;;;4853706;29;20497;-58
2023/08/01 08:12:33;;;;;;;5.68;1.20;;;15.70;99.90;;;;;;4845155;29;20073;-58
2023/08/01 08:15:02;;;;;;;8.40;0.88;;;15.70;99.90;;;;;;4851288;29;20057;-59
2023/08/01 08:17:29;;;;;;;5.60;1.35;;;15.80;99.90;;;;;;4853704;29;20379;-58
2023/08/01 08:19:57;;;;;;;4.82;1.02;;;15.80;99.90;;;;;;4852456;29;20058;-58
2023/08/01 08:22:25;;;;;;;7.53;1.23;;;15.90;99.90;;;;;;4818889;29;20048;-58
2023/08/01 08:24:53;;;;;;;5.40;1.35;;;;;;;;;;4849354;29;20057;-58
2023/08/01 08:27:20;;;;;;;8.18;1.33;;;15.80;99.90;;;;;;4822088;29;20505;-58
2023/08/01 08:29:49;;;;;;;6.70;1.30;;;15.80;99.90;;;;;;4845474;29;20605;-57
2023/08/01 08:32:17;;;;;;;7.70;1.08;;;;;;;;;;4855705;29;20402;-58
2023/08/01 08:34:45;;;;;;;5.80;1.10;;;15.80;99.90;;;;;;4848032;29;20068;-58
2023/08/01 08:37:12;;;;;;;7.22;0.98;;;15.90;99.90;;;;;;4822475;29;20077;-58
2023/08/01 08:39:40;;;;;;;3.55;1.33;;;15.90;99.90;;;;;;4849082;29;20414;-58
2023/08/01 08:42:08;;;;;;;5.72;1.10;;;16.00;99.90;;;;;;4852043;29;20062;-58
2023/08/01 08:44:43;;;;;;;3.78;0.88;;;16.00;99.90;;;;;;4854497;29;20053;-58
2023/08/01 08:47:12;;;;;;;5.35;0.90;;;16.00;99.90;;;;;;4834188;29;20049;-58
2023/08/01 08:49:41;;;;;;;7.20;1.13;;;16.10;99.90;;;;;;4851974;29;20057;-58
2023/08/01 08:52:10;;;;;;;3.97;1.15;;;16.00;99.90;;;;;;4836959;29;20041;-58
2023/08/01 08:54:38;;;;;;;5.05;0.80;;;16.10;99.90;;;;;;4842861;29;20394;-58
2023/08/01 08:57:06;;;;;;;3.58;0.70;;;16.10;99.90;;;;;;4843004;29;20045;-58
2023/08/01 08:59:35;;;;;;;5.63;0.80;;;16.30;99.90;;;;;;4843455;29;20056;-58
2023/08/01 09:02:04;;;;;;;3.67;0.75;;;16.40;99.90;;;;;;4829463;29;20053;-58
2023/08/01 09:04:32;;;;;;;6.47;0.75;;;16.60;99.90;;;;;;4849030;29;20049;-58
2023/08/01 09:07:07;;;;;;;4.45;0.98;;;16.60;99.90;;;;;;4843847;29;20060;-58
2023/08/01 09:09:35;;;;;;;2.95;0.93;;;16.70;99.90;;;;;;4842146;29;20053;-57
2023/08/01 09:12:03;;;;;;;3.80;0.80;;;16.70;99.90;;;;;;4826852;29;20046;-58
2023/08/01 09:14:32;;;;;;;1.80;0.70;;;16.80;99.90;;;;;;4845376;29;20062;-58
2023/08/01 09:17:08;;;;;;;2.65;0.65;;;16.90;99.90;;;;;;4840136;29;20045;-59
2023/08/01 09:19:36;;;;;;;4.18;0.65;;;17.00;99.90;;;;;;4838803;29;20787;-58
2023/08/01 09:22:14;;;;;;;5.40;0.65;;;17.00;99.90;;;;;;4853511;29;20053;-58
2023/08/01 09:24:52;;;;;;;1.70;0.70;;;17.00;99.90;;;;;;4852742;29;20053;-58
2023/08/01 09:27:24;;;;;;;5.97;0.80;;;16.90;99.90;;;;;;4849114;29;20435;-58
2023/08/01 09:29:53;;;;;;;3.38;0.68;;;16.90;99.90;;;;;;4827663;29;20498;-58
2023/08/01 09:32:20;;;;;;;2.22;0.70;;;16.90;99.90;;;;;;4855351;29;20053;-59
2023/08/01 09:34:58;;;;;;;3.45;0.80;;;16.90;99.90;;;;;;4833064;29;20049;-56
2023/08/01 09:37:26;;;;;;;3.75;0.88;;;16.90;99.90;;;;;;4839228;29;20057;-56
2023/08/01 09:39:57;;;;;;;4.18;0.90;;;17.00;99.90;;;;;;4831102;29;20046;-57
2023/08/01 09:42:25;;;;;;;1.27;0.70;;;17.10;99.90;;;;;;4839753;29;20060;-56
2023/08/01 09:44:53;;;;;;;4.45;0.88;;;17.10;99.90;;;;;;4847874;29;20057;-57
2023/08/01 09:47:20;;;;;;;5.93;0.73;;;17.30;99.90;;;;;;4851161;29;20056;-56
2023/08/01 09:49:52;;;;;;;4.68;0.80;;;17.50;99.90;;;;;;4845620;29;20057;-56
2023/08/01 09:52:29;;;;;;;3.47;0.60;;;17.40;99.90;;;;;;4849508;29;20049;-56
2023/08/01 09:54:57;;;;;;;5.43;1.08;;;16.20;99.90;;;;;;4831856;29;20049;-57
2023/08/01 09:57:28;;;;;;;7.85;1.10;;;17.30;99.90;;;;;;4843782;29;20509;-56
2023/08/01 09:59:57;;;;;;;4.50;0.50;;;17.30;99.90;;;;;;4841810;29;20045;-56
2023/08/01 10:02:31;;;;;;;3.97;0.98;;;17.20;99.90;;;;;;4844353;29;20486;-56
2023/08/01 10:05:00;;;;;;;1.35;0.50;;;17.20;99.90;;;;;;4824447;29;20423;-57
2023/08/01 10:07:30;;;;;;;4.18;1.05;;;17.10;99.90;;;;;;4845585;29;20053;-58
2023/08/01 10:10:00;;;;;;;4.43;0.73;;;17.10;99.90;;;;;;4833288;29;20052;-58
2023/08/01 10:12:29;;;;;;;2.33;0.43;;;17.10;99.90;;;;;;4843808;29;20744;-59
2023/08/01 10:14:58;;;;;;;5.72;0.70;;;17.20;99.90;;;;;;4836996;29;20045;-58
2023/08/01 10:17:27;;;;;;;2.33;0.63;;;17.30;99.90;;;;;;4841111;29;20050;-57
2023/08/01 10:19:56;;;;;;;6.17;0.60;;;17.70;99.90;;;;;;4839608;29;20054;-59
2023/08/01 10:22:25;;;;;;;4.88;0.77;;;17.70;99.90;;;;;;4835542;29;20784;-58
2023/08/01 10:24:53;;;;;;;1.13;0.70;;;;;;;;;;4835475;29;20049;-58
2023/08/01 10:27:22;;;;;;;6.28;0.70;;;17.80;99.90;;;;;;4829015;29;20054;-58
2023/08/01 10:30:04;;;;;;;1.80;0.50;;;17.90;99.90;;;;;;4847338;29;20596;-58
2023/08/01 10:32:36;;;;;;;3.08;0.70;;;17.90;99.90;;;;;;4845840;29;20050;-58
2023/08/01 10:35:06;;;;;;;3.22;0.45;;;17.90;99.90;;;;;;4844218;29;20065;-57
2023/08/01 10:37:47;;;;;;;4.20;0.65;;;18.00;99.90;;;;;;4829059;29;20050;-59
2023/08/01 10:40:14;;;;;;;6.53;1.00;;;18.00;99.90;;;;;;4811119;29;20057;-59
2023/08/01 10:42:45;;;;;;;1.58;0.68;;;18.00;99.90;;;;;;4840665;29;20057;-58
2023/08/01 10:45:23;;;;;;;0.77;0.40;;;18.10;99.90;;;;;;4840286;29;20064;-58
2023/08/01 10:47:54;;;;;;;3.25;0.50;;;18.00;99.90;;;;;;4840500;29;20069;-59
2023/08/01 10:50:22;;;;;;;2.25;0.60;;;18.10;99.90;;;;;;4837816;29;20446;-58
2023/08/01 10:53:03;;;;;;;3.30;0.50;;;18.00;99.90;;;;;;4852792;29;20041;-58
2023/08/01 10:55:41;;;;;;;2.70;1.00;;;18.10;99.90;;;;;;4841117;29;21115;-59
2023/08/01 10:58:09;;;;;;;3.88;0.50;;;18.00;99.90;;;;;;4820153;29;20421;-59
2023/08/01 11:00:38;;;;;;;1.23;0.40;;;18.10;99.90;;;;;;4848280;29;20068;-59
2023/08/01 11:03:05;;;;;;;1.25;0.30;;;18.10;99.90;;;;;;4840971;29;20046;-59
2023/08/01 11:05:33;;;;;;;1.20;0.32;;;18.40;99.90;;;;;;4834813;29;20414;-59
2023/08/01 11:08:03;;;;;;;5.47;0.50;;;18.60;99.90;;;;;;4834249;29;20050;-58
2023/08/01 11:10:32;;;;;;;2.30;0.40;;;18.60;99.90;;;;;;4822183;29;20508;-59
2023/08/01 11:13:00;;;;;;;6.45;1.00;;;18.60;99.90;;;;;;4833547;29;20069;-59
2023/08/01 11:15:28;;;;;;;2.35;0.70;;;18.60;99.90;;;;;;4815958;29;20065;-58
2023/08/01 11:17:56;;;;;;;3.40;1.10;;;18.60;99.90;;;;;;4838046;29;20057;-58
2023/08/01 11:20:25;;;;;;;4.43;0.93;;;18.70;99.90;;;;;;4839629;29;20643;-58
2023/08/01 11:22:57;;;;;;;4.82;0.60;;;18.70;99.90;;;;;;4823104;29;20049;-58
2023/08/01 11:25:54;;;;;;;2.38;0.73;;;18.70;99.90;;;;;;4849340;29;20053;-58
2023/08/01 11:28:24;;;;;;;2.65;0.60;;;;;;;;;;4823297;29;20057;-58
2023/08/01 11:30:51;;;;;;;2.83;0.60;;;18.90;99.90;;;;;;4840271;29;20056;-59
2023/08/01 11:33:24;;;;;;;4.60;0.68;;;19.00;99.90;;;;;;4842825;29;20049;-58
2023/08/01 11:35:59;;;;;;;3.85;0.50;;;19.00;99.90;;;;;;4850236;29;20092;-57
2023/08/01 11:38:29;;;;;;;2.00;0.68;;;18.90;99.90;;;;;;4826943;29;20053;-58
2023/08/01 11:40:58;;;;;;;;;;;18.80;99.90;;;;;;4844814;29;20060;-58
2023/08/01 11:43:25;;;;;;;2.22;0.75;;;18.70;99.90;;;;;;4831379;29;19924;-59
2023/08/01 11:45:55;;;;;;;1.83;0.40;;;18.60;99.90;;;;;;4843218;29;20436;-58
2023/08/01 11:48:23;;;;;;;1.80;0.40;;;18.70;99.90;;;;;;4838121;29;20045;-58
2023/08/01 11:51:01;;;;;;;3.10;0.50;;;18.70;99.90;;;;;;4855905;29;20054;-58
2023/08/01 11:53:30;;;;;;;2.15;0.73;;;18.90;99.90;;;;;;4827138;29;20541;-58
2023/08/01 11:55:57;;;;;;;2.70;1.20;;;19.20;99.90;;;;;;4822583;29;20529;-58
2023/08/01 11:58:30;;;;;;;1.50;0.70;;;19.40;99.90;;;;;;4840785;29;20422;-58
2023/08/01 12:01:13;;;;;;;4.38;0.80;;;19.40;99.90;;;;;;4846768;29;20069;-58
2023/08/01 12:03:45;;;;;;;5.95;0.80;;;19.30;99.90;;;;;;4850990;29;20049;-58
2023/08/01 12:06:13;;;;;;;5.30;0.70;;;19.10;99.90;;;;;;4839458;29;20405;-58
2023/08/01 12:08:45;;;;;;;2.28;0.55;;;18.90;99.90;;;;;;4854064;29;20092;-57
2023/08/01 12:11:27;;;;;;;7.05;0.60;;;18.70;99.90;;;;;;4846551;29;20494;-58
2023/08/01 12:14:15;;;;;;;3.25;0.60;;;18.60;99.90;;;;;;4845978;29;20053;-58
2023/08/01 12:16:45;;;;;;;1.75;0.80;;;18.40;99.90;;;;;;4847058;29;20053;-58
2023/08/01 12:19:20;;;;;;;2.30;0.47;;;18.20;99.90;;;;;;4847813;29;20378;-59
2023/08/01 12:21:49;;;;;;;5.13;0.50;;;18.20;99.90;;;;;;4839775;29;20058;-58
2023/08/01 12:24:17;;;;;;;3.88;0.55;;;18.20;99.90;;;;;;4856528;29;20050;-58
2023/08/01 12:26:44;;;;;;;3.47;0.70;;;18.20;99.90;;;;;;4849246;29;20058;-58
2023/08/01 12:29:12;;;;;;;2.25;0.43;;;18.30;99.90;;;;;;4847878;29;20049;-58
2023/08/01 12:31:40;;;;;;;2.67;0.52;;;18.40;99.90;;;;;;4846738;29;20058;-58
2023/08/01 12:34:08;;;;;;;4.75;0.82;;;18.60;99.90;;;;;;4837163;29;20054;-58
2023/08/01 12:36:36;;;;;;;5.93;0.40;;;18.80;99.90;;;;;;4815671;29;20058;-59
2023/08/01 12:39:04;;;;;;;3.58;0.70;;;19.10;99.90;;;;;;4852979;29;20057;-58
2023/08/01 12:41:32;;;;;;;4.25;0.80;;;19.30;99.90;;;;;;4854393;29;20049;-58
2023/08/01 12:44:00;;;;;;;3.08;0.60;;;19.40;99.90;;;;;;4830480;29;20060;-59
2023/08/01 12:46:28;;;;;;;3.28;0.80;;;19.20;99.90;;;;;;4845816;29;20050;-58
2023/08/01 12:48:56;;;;;;;2.67;0.68;;;19.10;99.90;;;;;;4831624;29;20072;-58
2023/08/01 12:51:24;;;;;;;3.05;0.70;;;19.00;99.90;;;;;;4851320;29;20053;-59
2023/08/01 12:53:52;;;;;;;2.70;1.00;;;18.80;99.90;;;;;;4847454;29;20057;-58
2023/08/01 12:56:20;;;;;;;3.55;0.50;;;18.60;99.90;;;;;;4852302;29;20056;-58
2023/08/01 12:58:47;;;;;;;5.65;0.80;;;18.40;99.90;;;;;;4852609;29;20078;-58